Grizzly Air Cargo 5372


PACD
Cold Bay Airport
Cold Bay, Alaska, US
PADU
Unalaska Airport
Unalaska, Alaska, US

Activity Log

Date Flight Route Aircraft Duration
No Flights Yet

Route Details

Aircraft Information
Primary: Saab 340AF
Backup: Not Available
Route Data
Distance: 169nm
Sched. Duration: 0h 70m
Avg. Duration: 0h 00m (-70m)
Times Flown: 0
Recm'd Route: CDB J115 DUT
Planned Altitude: 18,000ft
Origin Wx: PACD 251853Z 30031G38KT 10SM FEW060 SCT080 OVC090 02/M01 A2983 RMK AO2 PK WND 30042/1815 SNE12 SLP104 P0000 T00171006
Dest. Wx: PADU 251856Z 28022G27KT 10SM -RA FEW020 BKN032 OVC042 03/M01 A3008 RMK AO2 PK WND 27029/1824 RAB05 SLP190 P0000 T00331011
Notes:

Financial History
Total Freight: 0lbs
Average Load: 0lbs/flt
Fuel Used: 0lbs
Avg. Fuel Used: 0lbs/flt
Fuel Expense: $0
Avg. Fuel Expense: $0
Avg. Fuel Cost: $0/lbs
Total Gross Income: $0
Pilot Pay: $0
Total Expenses: $0
Total Revenue: $0
Average Revenue: $0